createdAt,value
2022-10-25T00:00:13.366Z,96.54
2022-10-25T00:01:14.734Z,96.64
2022-10-25T00:02:16.046Z,97.05
2022-10-25T00:03:16.048Z,97.15
2022-10-25T00:04:14.561Z,96.75
2022-10-25T00:05:14.751Z,96.54
2022-10-25T00:06:17.941Z,96.70
2022-10-25T00:07:15.350Z,96.39
2022-10-25T00:08:17.509Z,96.39
2022-10-25T00:09:17.684Z,96.60
2022-10-25T00:10:20.098Z,96.03
2022-10-25T00:11:20.018Z,96.30
2022-10-25T00:12:18.263Z,95.89
2022-10-25T00:13:18.953Z,95.79
2022-10-25T00:14:19.132Z,95.89
2022-10-25T00:15:19.317Z,95.79
2022-10-25T00:16:20.502Z,95.94
2022-10-25T00:17:18.239Z,95.64
2022-10-25T00:18:20.406Z,95.74
2022-10-25T00:19:20.590Z,95.48
2022-10-25T00:20:20.772Z,96.04
2022-10-25T00:21:21.926Z,95.13
2022-10-25T00:22:21.648Z,95.43
2022-10-25T00:23:21.824Z,95.03
2022-10-25T00:24:22.127Z,96.09
2022-10-25T00:25:22.208Z,95.74
2022-10-25T00:26:21.995Z,95.13
2022-10-25T00:27:23.167Z,95.43
2022-10-25T00:28:23.338Z,94.83
2022-10-25T00:30:23.695Z,95.34
2022-10-25T00:31:24.912Z,95.03
2022-10-25T00:32:24.187Z,95.13
2022-10-25T00:33:24.369Z,95.43
2022-10-25T00:34:25.058Z,95.64
2022-10-25T00:35:25.240Z,95.34
2022-10-25T00:36:26.420Z,95.34
2022-10-25T00:37:25.653Z,95.34
2022-10-25T00:38:24.417Z,95.54
2022-10-25T00:39:24.722Z,95.43
2022-10-25T00:40:26.908Z,95.13
2022-10-25T00:41:28.542Z,95.43
2022-10-25T00:42:27.278Z,95.18
2022-10-25T00:43:27.460Z,95.28
2022-10-25T00:44:28.120Z,95.68
2022-10-25T00:45:28.283Z,95.68
2022-10-25T00:46:28.599Z,96.19
2022-10-25T00:47:28.673Z,95.99
2022-10-25T00:48:29.367Z,95.79
2022-10-25T00:49:28.545Z,96.09
2022-10-25T00:50:29.728Z,95.79
2022-10-25T00:51:30.891Z,95.68
2022-10-25T00:52:30.625Z,96.19
2022-10-25T00:53:30.801Z,96.39
2022-10-25T00:54:30.993Z,95.99
2022-10-25T00:55:29.497Z,96.09
2022-10-25T00:56:31.699Z,96.39
2022-10-25T00:57:31.877Z,95.89
2022-10-25T00:58:32.062Z,96.39
2022-10-25T00:59:32.222Z,96.09
2022-10-25T01:00:32.913Z,95.89
2022-10-25T01:01:31.401Z,95.79
2022-10-25T01:02:33.672Z,95.64
2022-10-25T01:03:33.657Z,95.58
2022-10-25T01:04:32.171Z,96.19
2022-10-25T01:05:34.359Z,95.99
2022-10-25T01:06:32.752Z,95.84
2022-10-25T01:07:36.374Z,96.19
2022-10-25T01:08:36.555Z,96.25
2022-10-25T01:09:33.596Z,95.84
2022-10-25T01:10:33.914Z,95.64
2022-10-25T01:11:36.098Z,96.15
2022-10-25T01:12:36.282Z,96.04
2022-10-25T01:13:36.461Z,95.94
2022-10-25T01:14:35.103Z,95.54
2022-10-25T01:15:35.404Z,95.54
2022-10-25T01:16:37.589Z,95.64
2022-10-25T01:17:35.970Z,95.39
2022-10-25T01:18:38.153Z,95.19
2022-10-25T01:19:36.531Z,95.09
2022-10-25T01:20:36.841Z,95.09
2022-10-25T01:21:39.973Z,94.89
2022-10-25T01:22:37.353Z,94.89
2022-10-25T01:23:39.537Z,94.84
2022-10-25T01:24:37.919Z,94.78
2022-10-25T01:25:38.227Z,94.38
2022-10-25T01:26:40.425Z,95.09
2022-10-25T01:27:38.807Z,94.78
2022-10-25T01:28:40.994Z,94.38
2022-10-25T01:29:40.260Z,94.89
2022-10-25T01:30:40.457Z,94.89
2022-10-25T01:31:41.816Z,94.78
2022-10-25T01:32:40.997Z,95.59
2022-10-25T01:33:42.383Z,95.50
2022-10-25T01:34:40.777Z,94.89
2022-10-25T01:35:43.013Z,95.39
2022-10-25T01:36:41.395Z,95.29
2022-10-25T01:37:41.705Z,94.93
2022-10-25T01:38:42.025Z,95.29
2022-10-25T01:39:42.314Z,94.89
2022-10-25T01:40:42.664Z,94.98
2022-10-25T01:41:44.828Z,95.19
2022-10-25T01:42:43.225Z,94.58
2022-10-25T01:43:43.529Z,94.68
2022-10-25T01:44:45.706Z,94.43
2022-10-25T01:45:44.867Z,94.54
2022-10-25T01:46:46.270Z,94.54
2022-10-25T01:47:44.762Z,94.38
2022-10-25T01:48:44.919Z,94.58
2022-10-25T01:49:47.112Z,94.89
2022-10-25T01:50:48.279Z,94.68
2022-10-25T01:51:47.497Z,94.89
2022-10-25T01:52:46.175Z,94.43
2022-10-25T01:53:46.465Z,94.58
2022-10-25T01:54:48.630Z,94.38
2022-10-25T01:55:49.792Z,94.18
2022-10-25T01:56:49.028Z,93.97
2022-10-25T01:57:49.458Z,94.27
2022-10-25T01:58:49.912Z,94.23
2022-10-25T01:59:50.075Z,93.67
2022-10-25T02:00:51.903Z,93.93
2022-10-25T02:01:50.530Z,93.87
2022-10-25T02:02:50.739Z,94.38
2022-10-25T02:03:50.920Z,94.18
2022-10-25T02:04:51.611Z,94.27
2022-10-25T02:05:51.909Z,94.27
2022-10-25T02:06:52.125Z,94.07
2022-10-25T02:07:52.200Z,94.23
2022-10-25T02:08:52.385Z,93.73
2022-10-25T02:09:51.131Z,93.87
2022-10-25T02:10:52.451Z,93.83
2022-10-25T02:11:51.692Z,93.42
2022-10-25T02:12:52.010Z,93.62
2022-10-25T02:13:54.188Z,94.23
2022-10-25T02:14:52.580Z,94.13
2022-10-25T02:15:55.723Z,93.73
2022-10-25T02:16:54.950Z,93.97
2022-10-25T02:17:53.501Z,93.93
2022-10-25T02:18:55.668Z,93.52
2022-10-25T02:19:55.840Z,93.62
2022-10-25T02:20:58.403Z,94.03
2022-10-25T02:21:56.242Z,94.18
2022-10-25T02:22:56.415Z,94.27
2022-10-25T02:23:57.083Z,94.64
2022-10-25T02:24:55.472Z,93.83
2022-10-25T02:25:59.118Z,93.87
2022-10-25T02:26:57.854Z,94.03
2022-10-25T02:27:58.041Z,93.93
2022-10-25T02:28:58.204Z,93.42
2022-10-25T02:29:58.874Z,93.52
2022-10-25T02:30:59.228Z,93.52
2022-10-25T02:31:57.606Z,93.87
2022-10-25T02:32:57.920Z,94.43
2022-10-25T02:33:58.239Z,93.93
2022-10-25T02:35:00.483Z,94.23
2022-10-25T02:35:58.853Z,93.73
2022-10-25T02:36:59.165Z,94.13
2022-10-25T02:37:59.470Z,93.93
2022-10-25T02:38:59.767Z,94.23
2022-10-25T02:40:01.955Z,93.73
2022-10-25T02:41:01.357Z,93.73
2022-10-25T02:42:02.665Z,93.32
2022-10-25T02:43:00.951Z,93.93
2022-10-25T02:44:03.137Z,94.38
2022-10-25T02:45:01.531Z,94.43
2022-10-25T02:46:01.930Z,94.64
2022-10-25T02:47:04.108Z,94.43
2022-10-25T02:48:04.290Z,94.38
2022-10-25T02:49:04.480Z,94.54
2022-10-25T02:50:04.677Z,94.18
2022-10-25T02:51:05.872Z,94.23
2022-10-25T02:52:03.650Z,94.23
2022-10-25T02:53:05.838Z,94.64
2022-10-25T02:54:06.010Z,94.54
2022-10-25T02:55:06.179Z,94.13
2022-10-25T02:56:07.333Z,94.23
2022-10-25T02:57:05.105Z,94.23
2022-10-25T02:58:07.261Z,94.34
2022-10-25T02:59:07.454Z,94.64
2022-10-25T03:00:06.138Z,94.34
2022-10-25T03:01:09.855Z,93.93
2022-10-25T03:02:06.539Z,93.83
2022-10-25T03:03:08.724Z,94.64
2022-10-25T03:04:07.109Z,94.58
2022-10-25T03:05:07.538Z,94.64
2022-10-25T03:06:08.683Z,94.54
2022-10-25T03:07:09.893Z,94.34
2022-10-25T03:08:10.073Z,94.68
2022-10-25T03:09:10.255Z,94.84
2022-10-25T03:10:08.748Z,95.09
2022-10-25T03:11:10.044Z,94.68
2022-10-25T03:12:09.408Z,94.94
2022-10-25T03:13:11.594Z,95.09
2022-10-25T03:14:11.781Z,95.39
2022-10-25T03:15:10.296Z,95.39
2022-10-25T03:16:11.556Z,95.59
2022-10-25T03:17:10.912Z,95.50
2022-10-25T03:18:13.099Z,95.90
2022-10-25T03:19:11.482Z,95.79
2022-10-25T03:20:13.676Z,96.10
2022-10-25T03:21:12.154Z,96.20
2022-10-25T03:22:12.626Z,95.79
2022-10-25T03:23:14.533Z,95.70
2022-10-25T03:24:14.736Z,96.41
2022-10-25T03:25:14.178Z,96.30
2022-10-25T03:26:15.457Z,96.51
2022-10-25T03:27:13.853Z,96.66
2022-10-25T03:28:14.216Z,96.66
2022-10-25T03:29:14.405Z,96.75
2022-10-25T03:30:16.599Z,96.75
2022-10-25T03:31:16.481Z,96.96
2022-10-25T03:32:15.236Z,96.96
2022-10-25T03:33:15.548Z,97.06
2022-10-25T03:34:15.867Z,97.06
2022-10-25T03:35:18.055Z,97.26
2022-10-25T03:36:19.231Z,97.36
2022-10-25T03:37:18.452Z,97.26
2022-10-25T03:38:17.123Z,97.06
2022-10-25T03:39:17.435Z,97.47
2022-10-25T03:40:19.718Z,97.26
2022-10-25T03:41:20.451Z,97.36
2022-10-25T03:42:18.225Z,97.26
2022-10-25T03:43:20.457Z,97.47
2022-10-25T03:44:18.840Z,97.36
2022-10-25T03:45:21.021Z,97.16
2022-10-25T03:46:20.392Z,97.36
2022-10-25T03:47:19.621Z,97.77
2022-10-25T03:48:19.942Z,98.02
2022-10-25T03:49:22.120Z,98.22
2022-10-25T03:50:22.309Z,98.02
2022-10-25T03:51:20.900Z,98.18
2022-10-25T03:52:21.082Z,97.97
2022-10-25T03:53:23.266Z,98.02
2022-10-25T03:54:25.615Z,98.38
2022-10-25T03:55:24.638Z,97.87
2022-10-25T03:56:24.786Z,97.62
2022-10-25T03:57:24.523Z,97.42
2022-10-25T03:58:24.712Z,96.81
2022-10-25T03:59:24.899Z,96.71
2022-10-25T04:00:25.126Z,96.71
2022-10-25T04:01:26.294Z,96.51
2022-10-25T04:02:25.531Z,96.30
2022-10-25T04:03:24.288Z,96.51
2022-10-25T04:04:26.470Z,96.91
2022-10-25T04:05:28.163Z,96.61
2022-10-25T04:06:25.075Z,96.41
2022-10-25T04:07:25.377Z,95.86
2022-10-25T04:08:25.693Z,95.86
2022-10-25T04:09:28.844Z,95.55
2022-10-25T04:10:28.085Z,95.39
2022-10-25T04:11:26.591Z,95.94
2022-10-25T04:12:26.904Z,96.75
2022-10-25T04:13:29.095Z,96.66
2022-10-25T04:14:29.284Z,96.86
2022-10-25T04:15:29.735Z,97.06
2022-10-25T04:16:28.123Z,97.16
2022-10-25T04:17:28.499Z,97.16
2022-10-25T04:18:28.685Z,97.11
2022-10-25T04:19:30.848Z,96.81
2022-10-25T04:20:32.488Z,96.81
2022-10-25T04:21:29.525Z,96.81
2022-10-25T04:22:29.892Z,96.51
2022-10-25T04:23:32.023Z,96.71
2022-10-25T04:24:30.416Z,97.11
2022-10-25T04:25:30.719Z,96.71
2022-10-25T04:26:32.921Z,97.16
2022-10-25T04:27:33.081Z,97.62
2022-10-25T04:28:33.243Z,97.67
2022-10-25T04:29:33.398Z,97.56
2022-10-25T04:30:36.638Z,97.97
2022-10-25T04:31:34.347Z,98.28
2022-10-25T04:32:34.439Z,97.87
2022-10-25T04:33:34.627Z,97.77
2022-10-25T04:34:35.390Z,97.92
2022-10-25T04:35:35.554Z,97.56
2022-10-25T04:36:35.751Z,97.72
2022-10-25T04:37:35.929Z,97.42
2022-10-25T04:38:36.099Z,97.47
2022-10-25T04:39:36.780Z,97.97
2022-10-25T04:40:36.978Z,97.83
2022-10-25T04:41:37.301Z,97.42
2022-10-25T04:42:37.480Z,97.72
2022-10-25T04:43:39.029Z,97.56
2022-10-25T04:44:36.438Z,97.77
2022-10-25T04:45:38.633Z,97.77
2022-10-25T04:46:38.824Z,97.62
2022-10-25T04:47:39.006Z,97.47
2022-10-25T04:48:40.142Z,97.87
2022-10-25T04:49:39.870Z,97.77
2022-10-25T04:50:38.262Z,97.87
2022-10-25T04:51:40.494Z,97.77
2022-10-25T04:52:38.823Z,97.67
2022-10-25T04:53:41.972Z,97.87
2022-10-25T04:54:41.211Z,97.77
2022-10-25T04:55:39.702Z,97.87
2022-10-25T04:56:41.889Z,97.47
2022-10-25T04:57:40.274Z,97.56
2022-10-25T04:58:43.982Z,97.67
2022-10-25T04:59:42.892Z,97.67
2022-10-25T05:00:41.163Z,97.77
2022-10-25T05:01:41.607Z,97.67
2022-10-25T05:02:43.748Z,97.87
2022-10-25T05:03:42.033Z,97.47
2022-10-25T05:04:44.275Z,97.72
2022-10-25T05:05:42.659Z,97.56
2022-10-25T05:06:42.972Z,97.56
2022-10-25T05:07:46.106Z,97.67
2022-10-25T05:08:43.513Z,97.52
2022-10-25T05:09:46.658Z,97.52
2022-10-25T05:10:45.009Z,97.36
2022-10-25T05:11:44.365Z,97.77
2022-10-25T05:12:46.967Z,97.67
2022-10-25T05:13:44.945Z,97.62
2022-10-25T05:14:48.102Z,97.36
2022-10-25T05:15:46.486Z,97.56
2022-10-25T05:16:45.839Z,97.56
2022-10-25T05:17:47.140Z,97.77
2022-10-25T05:18:48.514Z,97.47
2022-10-25T05:19:48.531Z,97.77
2022-10-25T05:20:48.002Z,97.67
2022-10-25T05:21:48.201Z,97.77
2022-10-25T05:22:48.914Z,97.67
2022-10-25T05:23:49.922Z,97.56
2022-10-25T05:24:48.318Z,97.97
2022-10-25T05:25:50.492Z,97.67
2022-10-25T05:26:48.883Z,97.47
2022-10-25T05:27:51.205Z,97.56
2022-10-25T05:28:51.268Z,97.47
2022-10-25T05:29:49.779Z,97.47
2022-10-25T05:30:51.944Z,97.56
2022-10-25T05:31:50.324Z,97.26
2022-10-25T05:32:51.660Z,97.36
2022-10-25T05:33:50.865Z,97.36
2022-10-25T05:34:51.178Z,97.47
2022-10-25T05:35:53.355Z,97.42
2022-10-25T05:36:51.741Z,97.11
2022-10-25T05:37:53.531Z,97.16
2022-10-25T05:38:52.390Z,97.26
2022-10-25T05:39:54.567Z,97.26
2022-10-25T05:40:54.825Z,97.26
2022-10-25T05:41:54.929Z,97.47
2022-10-25T05:42:55.397Z,97.47
2022-10-25T05:43:53.658Z,97.22
2022-10-25T05:44:53.957Z,97.02
2022-10-25T05:45:54.248Z,97.22
2022-10-25T05:46:56.449Z,97.16
2022-10-25T05:47:57.622Z,97.36
2022-10-25T05:48:56.101Z,97.26
2022-10-25T05:49:57.333Z,97.11
2022-10-25T05:51:03.567Z,97.26
2022-10-25T05:51:58.908Z,97.06
2022-10-25T05:52:59.043Z,97.36
2022-10-25T05:53:56.578Z,96.81
2022-10-25T05:54:56.901Z,96.61
2022-10-25T05:55:59.059Z,97.06
2022-10-25T05:56:59.249Z,97.16
2022-10-25T05:58:00.896Z,97.47
2022-10-25T05:58:59.630Z,97.71
2022-10-25T05:59:58.407Z,97.67
2022-10-25T06:01:00.718Z,97.67
2022-10-25T06:02:00.855Z,97.56
2022-10-25T06:03:00.947Z,97.36
2022-10-25T06:04:01.135Z,97.36
2022-10-25T06:05:01.830Z,97.47
2022-10-25T06:06:03.475Z,97.26
2022-10-25T06:07:02.206Z,97.16
2022-10-25T06:08:00.863Z,97.47
2022-10-25T06:09:03.051Z,97.51
2022-10-25T06:10:07.073Z,98.02
2022-10-25T06:11:03.678Z,97.87
2022-10-25T06:12:06.124Z,97.56
2022-10-25T06:13:05.026Z,97.36
2022-10-25T06:14:04.224Z,97.22
2022-10-25T06:15:04.888Z,96.81
2022-10-25T06:16:05.014Z,96.91
2022-10-25T06:17:05.177Z,97.02
2022-10-25T06:18:05.356Z,96.91
2022-10-25T06:19:05.549Z,96.71
2022-10-25T06:20:06.230Z,96.51
2022-10-25T06:21:06.394Z,96.96
2022-10-25T06:22:06.577Z,97.02
2022-10-25T06:23:09.176Z,97.16
2022-10-25T06:24:05.557Z,96.81
2022-10-25T06:25:07.750Z,96.61
2022-10-25T06:26:06.153Z,96.81
2022-10-25T06:27:08.308Z,96.71
2022-10-25T06:28:09.929Z,96.71
2022-10-25T06:29:07.108Z,96.86
2022-10-25T06:30:07.452Z,96.96
2022-10-25T06:31:08.646Z,97.06
2022-10-25T06:32:07.913Z,96.71
2022-10-25T06:33:10.073Z,96.75
2022-10-25T06:34:10.314Z,96.81
2022-10-25T06:35:10.431Z,96.30
2022-10-25T06:36:10.606Z,96.30
2022-10-25T06:37:10.798Z,95.90
2022-10-25T06:38:09.591Z,95.90
2022-10-25T06:39:13.242Z,95.79
2022-10-25T06:40:10.109Z,95.90
2022-10-25T06:41:12.235Z,96.00
2022-10-25T06:42:12.429Z,96.00
2022-10-25T06:43:12.622Z,96.00
2022-10-25T06:44:12.754Z,96.00
2022-10-25T06:45:13.539Z,95.90
2022-10-25T06:46:13.677Z,96.15
2022-10-25T06:47:17.442Z,96.20
2022-10-25T06:48:15.289Z,95.90
2022-10-25T06:49:14.476Z,95.94
2022-10-25T06:50:16.016Z,95.84
2022-10-25T06:51:13.321Z,96.35
2022-10-25T06:52:14.372Z,96.15
2022-10-25T06:53:13.792Z,96.25
2022-10-25T06:54:14.025Z,96.60
2022-10-25T06:55:16.207Z,96.55
2022-10-25T06:56:15.123Z,96.55
2022-10-25T06:57:18.266Z,96.04
2022-10-25T06:58:15.234Z,95.94
2022-10-25T06:59:17.421Z,96.15
2022-10-25T07:00:15.743Z,96.04
2022-10-25T07:01:16.019Z,96.19
2022-10-25T07:02:17.378Z,96.86
2022-10-25T07:03:16.550Z,96.55
2022-10-25T07:04:19.675Z,96.66
2022-10-25T07:05:17.115Z,96.35
2022-10-25T07:06:17.383Z,96.04
2022-10-25T07:07:20.556Z,96.15
2022-10-25T07:08:17.865Z,95.94
2022-10-25T07:09:20.047Z,96.55
2022-10-25T07:10:18.453Z,96.35
2022-10-25T07:11:20.650Z,96.15
2022-10-25T07:12:19.918Z,96.25
2022-10-25T07:13:19.208Z,96.45
2022-10-25T07:14:21.388Z,96.75
2022-10-25T07:16:19.982Z,96.45
2022-10-25T07:17:21.197Z,96.10
2022-10-25T07:18:20.477Z,96.00
2022-10-25T07:19:22.732Z,96.00
2022-10-25T07:20:21.017Z,96.00
2022-10-25T07:21:21.252Z,95.55
2022-10-25T07:22:22.504Z,95.50
2022-10-25T07:23:21.874Z,95.65
2022-10-25T07:24:23.980Z,94.90
2022-10-25T07:25:24.170Z,94.49
2022-10-25T07:26:22.715Z,94.74
2022-10-25T07:27:24.069Z,94.84
2022-10-25T07:28:23.356Z,94.84
2022-10-25T07:29:27.019Z,95.14
2022-10-25T07:30:23.879Z,95.25
2022-10-25T07:31:24.112Z,94.94
2022-10-25T07:32:25.790Z,95.10
2022-10-25T07:33:24.591Z,95.25
2022-10-25T07:34:26.770Z,95.30
2022-10-25T07:35:25.083Z,95.20
2022-10-25T07:36:25.314Z,94.79
2022-10-25T07:37:27.498Z,94.90
2022-10-25T07:38:27.912Z,95.30
2022-10-25T07:39:28.072Z,95.20
2022-10-25T07:40:26.373Z,94.90
2022-10-25T07:41:26.603Z,94.90
2022-10-25T07:42:28.794Z,94.49
2022-10-25T07:43:27.093Z,94.29
2022-10-25T07:44:27.332Z,94.85
2022-10-25T07:45:28.925Z,94.35
2022-10-25T07:46:27.810Z,94.29
2022-10-25T07:47:29.984Z,94.35
2022-10-25T07:48:28.295Z,94.49
2022-10-25T07:49:30.473Z,94.70
2022-10-25T07:50:29.642Z,94.85
2022-10-25T07:51:29.049Z,94.24
2022-10-25T07:52:31.263Z,94.35
2022-10-25T07:53:31.438Z,94.55
2022-10-25T07:54:31.654Z,94.75
2022-10-25T07:55:31.808Z,94.04
2022-10-25T07:56:30.559Z,94.24
2022-10-25T07:57:32.683Z,94.35
2022-10-25T07:58:32.861Z,94.20
2022-10-25T07:59:33.066Z,93.94
2022-10-25T08:00:33.761Z,93.74
2022-10-25T08:01:32.150Z,94.35
2022-10-25T08:02:32.418Z,94.35
2022-10-25T08:03:34.636Z,94.35
2022-10-25T08:04:34.776Z,93.94
2022-10-25T08:05:33.195Z,94.85
2022-10-25T08:06:33.438Z,94.20
2022-10-25T08:07:34.564Z,94.00
2022-10-25T08:08:33.986Z,93.59
2022-10-25T08:09:39.133Z,93.90
2022-10-25T08:10:36.351Z,92.74
2022-10-25T08:11:36.531Z,92.64
2022-10-25T08:12:36.692Z,92.99
2022-10-25T08:13:36.495Z,93.79
2022-10-25T08:14:40.767Z,93.49
2022-10-25T08:15:36.091Z,93.74
2022-10-25T08:16:38.293Z,94.75
2022-10-25T08:17:36.555Z,94.10
2022-10-25T08:18:37.878Z,93.70
2022-10-25T08:19:39.102Z,93.74
2022-10-25T08:21:00.592Z,93.94
2022-10-25T08:21:38.621Z,94.14
2022-10-25T08:22:39.819Z,93.63
2022-10-25T08:23:40.197Z,93.84
2022-10-25T08:24:41.684Z,93.84
2022-10-25T08:25:38.758Z,93.54
2022-10-25T08:26:40.960Z,93.29
2022-10-25T08:27:39.268Z,93.29
2022-10-25T08:28:40.487Z,93.13
2022-10-25T08:29:41.700Z,93.23
2022-10-25T08:30:40.013Z,93.39
2022-10-25T08:31:41.374Z,92.24
2022-10-25T08:32:40.540Z,91.18
2022-10-25T08:33:41.796Z,91.69
2022-10-25T08:34:42.975Z,91.28
2022-10-25T08:35:44.120Z,91.28
2022-10-25T08:36:41.700Z,90.63
2022-10-25T08:37:41.939Z,90.03
2022-10-25T08:38:45.640Z,90.28
2022-10-25T08:39:42.482Z,89.07
2022-10-25T08:40:44.736Z,90.03
2022-10-25T08:41:44.870Z,89.62
2022-10-25T08:42:45.072Z,89.28
2022-10-25T08:43:44.677Z,88.32
2022-10-25T08:44:45.890Z,87.76
2022-10-25T08:45:48.447Z,88.92
2022-10-25T08:46:44.653Z,90.03
2022-10-25T08:47:46.902Z,89.48
2022-10-25T08:48:47.984Z,89.62
2022-10-25T08:49:47.209Z,89.48
2022-10-25T08:50:47.901Z,90.08
2022-10-25T08:51:47.166Z,89.42
2022-10-25T08:52:48.382Z,89.68
2022-10-25T08:53:49.545Z,89.72
2022-10-25T08:54:47.095Z,89.83
2022-10-25T08:56:05.230Z,89.98
2022-10-25T08:57:03.355Z,89.92
2022-10-25T08:57:49.170Z,90.03
2022-10-25T08:58:50.153Z,89.98
2022-10-25T08:59:48.464Z,88.48
2022-10-25T09:00:50.649Z,87.72
2022-10-25T09:01:50.890Z,88.53
2022-10-25T09:02:50.870Z,88.32
2022-10-25T09:03:52.331Z,88.47
2022-10-25T09:04:49.786Z,89.01
2022-10-25T09:05:51.975Z,90.12
2022-10-25T09:06:52.153Z,88.99
2022-10-25T09:07:50.585Z,87.54
2022-10-25T09:08:52.329Z,87.48
2022-10-25T09:09:51.134Z,86.43
2022-10-25T09:10:52.389Z,86.47
2022-10-25T09:11:53.554Z,88.32
2022-10-25T09:12:51.995Z,88.12
2022-10-25T09:13:55.653Z,88.43
2022-10-25T09:14:54.362Z,87.78
2022-10-25T09:15:52.795Z,87.18
2022-10-25T09:16:54.992Z,86.83
2022-10-25T09:17:53.297Z,87.88
2022-10-25T09:18:54.564Z,87.68
2022-10-25T09:19:55.843Z,88.17
2022-10-25T09:20:55.968Z,87.96
2022-10-25T09:21:56.181Z,89.32
2022-10-25T09:22:54.713Z,90.12
2022-10-25T09:23:57.874Z,89.92
2022-10-25T09:24:57.910Z,89.72
2022-10-25T09:25:55.465Z,90.03
2022-10-25T09:26:55.710Z,89.52
2022-10-25T09:27:56.943Z,90.33
2022-10-25T09:28:58.571Z,89.42
2022-10-25T09:29:56.500Z,89.58
2022-10-25T09:30:58.807Z,88.18
2022-10-25T09:31:57.117Z,87.29
2022-10-25T09:32:57.350Z,86.16
2022-10-25T09:34:01.466Z,87.54
2022-10-25T09:34:58.844Z,86.13
2022-10-25T09:36:00.024Z,86.79
2022-10-25T09:36:58.479Z,86.43
2022-10-25T09:38:00.658Z,86.22
2022-10-25T09:38:59.874Z,86.51
2022-10-25T09:39:59.305Z,88.23
2022-10-25T09:40:59.553Z,87.27
2022-10-25T09:41:59.790Z,88.12
2022-10-25T09:43:02.059Z,87.13
2022-10-25T09:44:02.134Z,87.32
2022-10-25T09:45:00.718Z,88.47
2022-10-25T09:46:00.977Z,89.48
2022-10-25T09:47:01.382Z,88.53
2022-10-25T09:48:01.620Z,87.78
2022-10-25T09:49:03.813Z,87.52
2022-10-25T09:50:04.007Z,87.32
2022-10-25T09:51:02.546Z,88.32
2022-10-25T09:52:02.782Z,86.97
2022-10-25T09:53:03.035Z,85.24
2022-10-25T09:54:05.203Z,86.02
2022-10-25T09:55:05.390Z,86.83
2022-10-25T09:56:05.579Z,85.96
2022-10-25T09:57:04.129Z,87.92
2022-10-25T09:58:06.307Z,86.27
2022-10-25T09:59:04.605Z,86.36
2022-10-25T10:00:06.785Z,86.07
2022-10-25T10:01:05.179Z,86.07
2022-10-25T10:02:05.432Z,85.96
2022-10-25T10:04:05.930Z,84.57
2022-10-25T10:05:08.117Z,84.37
2022-10-25T10:06:06.421Z,84.03
2022-10-25T10:07:06.667Z,83.76
2022-10-25T10:08:06.889Z,84.51
2022-10-25T10:09:07.154Z,84.71
2022-10-25T10:10:09.335Z,85.05
2022-10-25T10:11:09.521Z,85.05
2022-10-25T10:12:07.941Z,86.07
2022-10-25T10:13:08.208Z,84.95
2022-10-25T10:14:11.831Z,85.56
2022-10-25T10:15:10.586Z,85.22
2022-10-25T10:16:10.750Z,85.02
2022-10-25T10:17:10.938Z,85.66
2022-10-25T10:18:09.619Z,85.76
2022-10-25T10:19:11.814Z,85.46
2022-10-25T10:20:10.114Z,86.55
2022-10-25T10:21:12.301Z,87.30
2022-10-25T10:22:12.655Z,89.16
2022-10-25T10:23:12.695Z,89.06
2022-10-25T10:24:12.971Z,89.32
2022-10-25T10:25:11.402Z,89.01
2022-10-25T10:26:13.593Z,89.06
2022-10-25T10:27:13.792Z,88.71
2022-10-25T10:28:13.910Z,88.12
2022-10-25T10:29:17.478Z,87.18
2022-10-25T10:30:14.356Z,84.81
2022-10-25T10:31:14.989Z,84.77
2022-10-25T10:32:15.156Z,83.52
2022-10-25T10:33:15.343Z,83.32
2022-10-25T10:34:17.001Z,83.28
2022-10-25T10:35:15.728Z,83.54
2022-10-25T10:36:17.887Z,81.93
2022-10-25T10:37:16.595Z,81.79
2022-10-25T10:38:16.779Z,81.33
2022-10-25T10:39:17.137Z,81.67
2022-10-25T10:40:17.193Z,82.07
2022-10-25T10:41:17.869Z,82.64
2022-10-25T10:42:18.072Z,81.93
2022-10-25T10:43:18.246Z,80.85
2022-10-25T10:44:16.863Z,80.49
2022-10-25T10:45:18.988Z,81.73
2022-10-25T10:46:19.166Z,82.20
2022-10-25T10:47:19.355Z,80.45
2022-10-25T10:48:18.852Z,80.93
2022-10-25T10:49:21.779Z,80.93
2022-10-25T10:50:20.508Z,82.28
2022-10-25T10:52:20.186Z,81.29
2022-10-25T10:53:21.340Z,80.19
2022-10-25T10:54:19.767Z,81.79
2022-10-25T10:55:21.947Z,81.59
2022-10-25T10:56:22.170Z,80.99
2022-10-25T10:57:22.328Z,81.76
2022-10-25T10:58:22.502Z,78.66
2022-10-25T10:59:24.633Z,78.64
2022-10-25T11:00:23.363Z,80.45
2022-10-25T11:01:23.616Z,79.06
2022-10-25T11:02:23.947Z,80.19
2022-10-25T11:03:23.923Z,82.21
2022-10-25T11:04:26.277Z,83.46
2022-10-25T11:05:23.070Z,83.66
2022-10-25T11:06:25.239Z,83.42
2022-10-25T11:07:23.548Z,83.70
2022-10-25T11:08:23.780Z,86.10
2022-10-25T11:09:24.044Z,86.75
2022-10-25T11:10:24.268Z,87.81
2022-10-25T11:11:26.449Z,87.81
2022-10-25T11:12:24.756Z,88.10
2022-10-25T11:13:24.997Z,88.01
2022-10-25T11:14:25.230Z,88.26
2022-10-25T11:15:25.478Z,86.27
2022-10-25T11:16:28.173Z,83.72
2022-10-25T11:17:25.980Z,82.34
2022-10-25T11:18:28.153Z,80.58
2022-10-25T11:19:26.492Z,80.25
2022-10-25T11:20:28.671Z,80.58
2022-10-25T11:21:26.977Z,81.43
2022-10-25T11:22:32.145Z,81.49
2022-10-25T11:23:29.338Z,80.55
2022-10-25T11:24:29.494Z,79.21
2022-10-25T11:25:28.058Z,79.21
2022-10-25T11:26:30.244Z,81.19
2022-10-25T11:27:30.782Z,82.14
2022-10-25T11:28:30.735Z,81.99
2022-10-25T11:29:30.929Z,81.49
2022-10-25T11:30:31.116Z,81.23
2022-10-25T11:31:29.789Z,80.55
2022-10-25T11:32:30.049Z,79.74
2022-10-25T11:33:30.266Z,79.94
2022-10-25T11:34:32.456Z,79.68
2022-10-25T11:35:32.641Z,80.19
2022-10-25T11:36:31.211Z,79.71
2022-10-25T11:37:31.309Z,79.74
2022-10-25T11:38:31.541Z,78.60
2022-10-25T11:39:33.731Z,78.90
2022-10-25T11:40:33.906Z,79.10
2022-10-25T11:41:34.067Z,79.44
2022-10-25T11:42:32.620Z,80.55
2022-10-25T11:43:32.863Z,80.01
2022-10-25T11:44:36.502Z,78.86
2022-10-25T11:45:35.230Z,78.54
2022-10-25T11:46:33.670Z,79.35
2022-10-25T11:47:34.873Z,79.64
2022-10-25T11:48:36.098Z,79.21
2022-10-25T11:49:34.406Z,78.90
2022-10-25T11:50:34.643Z,78.10
2022-10-25T11:51:34.989Z,78.38
2022-10-25T11:52:35.221Z,79.52
2022-10-25T11:53:37.402Z,81.81
2022-10-25T11:54:39.059Z,80.97
2022-10-25T11:55:37.786Z,81.57
2022-10-25T11:56:36.224Z,80.52
2022-10-25T11:57:36.456Z,79.82
2022-10-25T11:58:37.642Z,78.54
2022-10-25T11:59:38.806Z,79.28
2022-10-25T12:00:38.969Z,79.44
2022-10-25T12:01:39.692Z,79.82
2022-10-25T12:02:37.991Z,80.32
2022-10-25T12:03:38.205Z,79.72
2022-10-25T12:04:38.547Z,78.67
2022-10-25T12:05:38.663Z,79.68
2022-10-25T12:06:38.903Z,78.50
2022-10-25T12:07:41.075Z,78.70
2022-10-25T12:08:39.386Z,77.80
2022-10-25T12:09:41.575Z,77.50
2022-10-25T12:10:39.951Z,77.70
2022-10-25T12:11:40.201Z,78.44
2022-10-25T12:12:42.386Z,78.54
2022-10-25T12:13:40.678Z,78.84
2022-10-25T12:14:44.320Z,78.98
2022-10-25T12:15:43.044Z,79.99
2022-10-25T12:16:43.228Z,78.74
2022-10-25T12:17:43.917Z,80.02
2022-10-25T12:18:44.106Z,79.94
2022-10-25T12:19:42.552Z,79.44
2022-10-25T12:20:42.799Z,77.46
2022-10-25T12:21:43.865Z,77.29
2022-10-25T12:22:45.485Z,77.06
2022-10-25T12:23:43.618Z,78.23
2022-10-25T12:24:44.709Z,79.58
2022-10-25T12:25:44.143Z,79.68
2022-10-25T12:26:46.323Z,79.18
2022-10-25T12:27:44.630Z,79.62
2022-10-25T12:28:46.813Z,79.54
2022-10-25T12:29:46.997Z,79.68
2022-10-25T12:30:47.180Z,78.64
2022-10-25T12:31:47.353Z,80.40
2022-10-25T12:32:48.433Z,82.18
2022-10-25T12:33:47.238Z,80.63
2022-10-25T12:34:49.889Z,80.80
2022-10-25T12:35:48.596Z,82.50
2022-10-25T12:36:48.755Z,83.70
2022-10-25T12:37:49.758Z,82.93
2022-10-25T12:38:49.627Z,83.26
2022-10-25T12:39:48.132Z,84.31
2022-10-25T12:40:51.578Z,83.16
2022-10-25T12:41:50.320Z,82.71
2022-10-25T12:42:50.596Z,81.81
2022-10-25T12:43:50.678Z,81.98
2022-10-25T12:44:49.487Z,80.97
2022-10-25T12:45:55.955Z,81.77
2022-10-25T12:46:52.881Z,80.39
2022-10-25T12:47:50.322Z,79.68
2022-10-25T12:48:50.570Z,79.24
2022-10-25T12:49:50.816Z,79.04
2022-10-25T12:50:51.054Z,80.29
2022-10-25T12:51:51.338Z,80.63
2022-10-25T12:52:53.520Z,80.83
2022-10-25T12:53:51.842Z,79.85
2022-10-25T12:54:54.042Z,79.74
2022-10-25T12:55:54.213Z,79.35
2022-10-25T12:56:54.412Z,80.65
2022-10-25T12:57:54.589Z,79.21
2022-10-25T12:58:55.298Z,78.70
2022-10-25T12:59:55.472Z,78.40